createdAt,value
2022-10-07T00:03:44.847Z,100
2022-10-07T00:13:44.983Z,100
2022-10-07T00:23:44.847Z,100
2022-10-07T00:33:44.821Z,100
2022-10-07T00:43:44.845Z,100
2022-10-07T00:53:44.849Z,100
2022-10-07T01:03:44.861Z,100
2022-10-07T01:13:44.806Z,100
2022-10-07T01:23:44.969Z,100
2022-10-07T01:33:44.815Z,100
2022-10-07T01:43:44.814Z,100
2022-10-07T01:53:44.810Z,100
2022-10-07T02:03:45.127Z,100
2022-10-07T02:13:44.817Z,100
2022-10-07T02:23:44.815Z,100
2022-10-07T02:33:44.797Z,100
2022-10-07T02:43:44.837Z,100
2022-10-07T02:53:44.806Z,100
2022-10-07T03:03:44.967Z,100
2022-10-07T03:13:44.793Z,100
2022-10-07T03:23:44.815Z,100
2022-10-07T03:33:44.764Z,100
2022-10-07T03:43:44.801Z,100
2022-10-07T03:53:44.786Z,100
2022-10-07T04:03:44.845Z,100
2022-10-07T04:13:44.764Z,100
2022-10-07T04:23:44.783Z,100
2022-10-07T04:33:44.790Z,100
2022-10-07T04:53:44.807Z,100
2022-10-07T05:03:44.767Z,100
2022-10-07T05:13:44.767Z,100
2022-10-07T05:23:44.740Z,100
2022-10-07T05:33:44.771Z,100
2022-10-07T05:43:44.711Z,100
2022-10-07T05:53:44.916Z,100
2022-10-07T06:03:44.721Z,100
2022-10-07T06:13:44.737Z,100
2022-10-07T06:23:44.727Z,100
2022-10-07T06:33:44.751Z,100
2022-10-07T06:43:44.712Z,100
2022-10-07T06:53:44.805Z,100
2022-10-07T07:03:44.707Z,100
2022-10-07T07:13:45.365Z,100
2022-10-07T07:23:44.687Z,100
2022-10-07T07:33:44.760Z,100
2022-10-07T07:43:44.871Z,100
2022-10-07T07:53:44.724Z,100
2022-10-07T08:03:44.698Z,100
2022-10-07T08:13:44.700Z,100
2022-10-07T08:23:44.818Z,100
2022-10-07T08:33:44.695Z,100
2022-10-07T08:43:44.661Z,100
2022-10-07T08:53:44.672Z,100
2022-10-07T09:03:44.667Z,100
2022-10-07T09:13:44.658Z,100
2022-10-07T09:23:44.629Z,100
2022-10-07T09:33:44.665Z,100
2022-10-07T09:43:44.642Z,100
2022-10-07T09:53:44.639Z,93
2022-10-07T10:03:44.622Z,82
2022-10-07T10:13:44.684Z,72
2022-10-07T10:23:44.570Z,70
2022-10-07T10:33:44.614Z,63
2022-10-07T10:43:44.558Z,64
2022-10-07T10:53:44.564Z,62
2022-10-07T11:03:44.530Z,62
2022-10-07T11:13:44.563Z,64
2022-10-07T11:23:44.523Z,64
2022-10-07T11:33:44.571Z,66
2022-10-07T11:43:44.508Z,68
2022-10-07T11:53:44.509Z,71
2022-10-07T12:03:44.510Z,77
2022-10-07T12:13:44.495Z,74
2022-10-07T12:23:44.460Z,74
2022-10-07T12:33:44.477Z,74
2022-10-07T12:43:44.440Z,74
2022-10-07T12:53:44.448Z,72
2022-10-07T13:03:44.420Z,74
2022-10-07T13:13:44.435Z,76
2022-10-07T13:23:44.423Z,75
2022-10-07T13:33:44.445Z,76
2022-10-07T13:43:44.378Z,78
2022-10-07T13:53:44.495Z,76
2022-10-07T14:03:44.386Z,79
2022-10-07T14:13:44.370Z,81
2022-10-07T14:23:44.361Z,81
2022-10-07T14:33:44.359Z,85
2022-10-07T14:43:44.312Z,87
2022-10-07T14:53:44.362Z,87
2022-10-07T15:03:44.348Z,88
2022-10-07T15:13:44.313Z,89
2022-10-07T15:23:44.297Z,93
2022-10-07T15:33:44.307Z,95
2022-10-07T15:43:44.256Z,93
2022-10-07T15:53:44.316Z,97
2022-10-07T16:03:44.251Z,100
2022-10-07T16:13:44.257Z,100
2022-10-07T16:23:44.225Z,100
2022-10-07T16:33:44.259Z,100
2022-10-07T16:43:44.246Z,100
2022-10-07T16:53:44.257Z,100
2022-10-07T17:03:44.283Z,100
2022-10-07T17:13:44.239Z,100
2022-10-07T17:23:44.218Z,100
2022-10-07T17:33:44.200Z,100
2022-10-07T17:43:44.172Z,100
2022-10-07T17:53:44.177Z,100
2022-10-07T18:03:44.160Z,100
2022-10-07T18:13:44.168Z,100
2022-10-07T18:23:44.148Z,100
2022-10-07T18:33:44.171Z,100
2022-10-07T18:43:44.171Z,100
2022-10-07T18:53:44.173Z,100
2022-10-07T19:03:44.106Z,100
2022-10-07T19:13:44.155Z,100
2022-10-07T19:23:44.114Z,100
2022-10-07T19:33:44.330Z,100
2022-10-07T19:43:44.116Z,100
2022-10-07T19:53:46.968Z,100
2022-10-07T20:03:44.102Z,100
2022-10-07T20:13:44.101Z,100
2022-10-07T20:23:44.088Z,100
2022-10-07T20:33:44.091Z,100
2022-10-07T20:43:45.745Z,100
2022-10-07T20:53:44.096Z,100
2022-10-07T21:03:44.089Z,100
2022-10-07T21:13:44.088Z,100
2022-10-07T21:23:44.083Z,100
2022-10-07T21:33:44.108Z,100
2022-10-07T21:43:44.061Z,100
2022-10-07T21:53:44.086Z,100
2022-10-07T22:03:44.035Z,100
2022-10-07T22:13:44.066Z,100
2022-10-07T22:23:44.030Z,100
2022-10-07T22:33:52.233Z,100
2022-10-07T22:43:44.031Z,100
2022-10-07T22:53:44.047Z,100
2022-10-07T23:03:44.172Z,100
2022-10-07T23:13:44.057Z,100
2022-10-07T23:23:44.030Z,100
2022-10-07T23:33:44.034Z,100
2022-10-07T23:43:44.031Z,100
2022-10-07T23:53:44.193Z,100
